Time,TemperatureF,DewpointF,PressureIn,WindDirection,WindDirectionDegrees,WindSpeedMPH,WindSpeedGustMPH,Humidity,HourlyPrecipIn,Conditions,Clouds,dailyrainin,SoftwareType,DateUTC
2013-01-23 00:02:00,30.0,3.0,-100.00,East,80,1.0,2.0,31,-99.99,,,-99.99,,2013-01-23 07:02:00,
2013-01-23 00:12:00,31.0,4.0,-100.00,ESE,115,1.0,2.0,31,-99.99,,,-99.99,,2013-01-23 07:12:00,
2013-01-23 00:22:00,33.0,4.0,-100.00,SE,130,0.0,3.0,28,-99.99,,,-99.99,,2013-01-23 07:22:00,
2013-01-23 00:33:00,31.0,4.0,-100.00,West,280,1.0,6.0,29,-99.99,,,-99.99,,2013-01-23 07:33:00,
2013-01-23 00:42:00,32.0,3.0,-100.00,NE,35,1.0,3.0,29,-99.99,,,-99.99,,2013-01-23 07:42:00,
2013-01-23 00:52:00,35.0,4.0,-100.00,NE,45,1.0,3.0,27,-99.99,,,-99.99,,2013-01-23 07:52:00,
2013-01-23 01:02:00,33.0,4.0,-100.00,East,90,0.0,3.0,27,-99.99,,,-99.99,,2013-01-23 08:02:00,
2013-01-23 01:12:00,34.0,4.0,-100.00,ENE,65,0.0,2.0,27,-99.99,,,-99.99,,2013-01-23 08:12:00,
2013-01-23 01:22:00,33.0,3.0,-100.00,WNW,285,2.0,4.0,27,-99.99,,,-99.99,,2013-01-23 08:22:00,
2013-01-23 01:33:00,33.0,3.0,-100.00,NNW,330,2.0,6.0,27,-99.99,,,-99.99,,2013-01-23 08:33:00,
2013-01-23 01:42:00,34.0,4.0,-100.00,NW,310,1.0,6.0,27,-99.99,,,-99.99,,2013-01-23 08:42:00,
2013-01-23 01:52:00,34.0,3.0,-100.00,NNE,30,0.0,2.0,26,-99.99,,,-99.99,,2013-01-23 08:52:00,
2013-01-23 02:02:00,34.0,3.0,-100.00,West,265,1.0,2.0,26,-99.99,,,-99.99,,2013-01-23 09:02:00,
2013-01-23 02:12:00,33.0,3.0,-100.00,ENE,60,1.0,3.0,26,-99.99,,,-99.99,,2013-01-23 09:12:00,
2013-01-23 02:22:00,36.0,4.0,-100.00,NNW,335,0.0,2.0,24,-99.99,,,-99.99,,2013-01-23 09:22:00,
2013-01-23 02:32:00,38.0,4.0,-100.00,NNE,25,1.0,1.0,23,-99.99,,,-99.99,,2013-01-23 09:32:00,
2013-01-23 02:43:00,37.0,3.0,-100.00,NNW,340,1.0,3.0,23,-99.99,,,-99.99,,2013-01-23 09:43:00,
2013-01-23 02:52:00,37.0,3.0,-100.00,NE,55,1.0,2.0,23,-99.99,,,-99.99,,2013-01-23 09:52:00,
2013-01-23 03:03:00,36.0,2.0,-100.00,North,10,1.0,4.0,23,-99.99,,,-99.99,,2013-01-23 10:03:00,
2013-01-23 03:22:00,39.0,3.0,-100.00,North,0,2.0,4.0,21,-99.99,,,-99.99,,2013-01-23 10:22:00,
2013-01-23 03:32:00,36.0,2.0,-100.00,WSW,240,2.0,5.0,22,-99.99,,,-99.99,,2013-01-23 10:32:00,
2013-01-23 03:42:00,33.0,2.0,-100.00,NW,315,8.0,9.0,25,-99.99,,,-99.99,,2013-01-23 10:42:00,
2013-01-23 03:52:00,33.0,2.0,-100.00,NNW,340,4.0,6.0,25,-99.99,,,-99.99,,2013-01-23 10:52:00,
2013-01-23 04:02:00,34.0,2.0,-100.00,NW,320,6.0,6.0,25,-99.99,,,-99.99,,2013-01-23 11:02:00,
2013-01-23 04:12:00,35.0,2.0,-100.00,NW,305,3.0,6.0,24,-99.99,,,-99.99,,2013-01-23 11:12:00,
2013-01-23 04:22:00,36.0,2.0,-100.00,North,5,1.0,6.0,23,-99.99,,,-99.99,,2013-01-23 11:22:00,
2013-01-23 04:33:00,33.0,2.0,-100.00,WNW,300,7.0,9.0,25,-99.99,,,-99.99,,2013-01-23 11:33:00,
2013-01-23 04:43:00,31.0,1.0,-100.00,NW,325,6.0,8.0,26,-99.99,,,-99.99,,2013-01-23 11:43:00,
2013-01-23 04:52:00,31.0,1.0,-100.00,NW,315,4.0,6.0,27,-99.99,,,-99.99,,2013-01-23 11:52:00,
2013-01-23 05:03:00,30.0,1.0,-100.00,NW,315,7.0,9.0,28,-99.99,,,-99.99,,2013-01-23 12:03:00,
2013-01-23 05:12:00,30.0,1.0,-100.00,NNW,340,3.0,9.0,27,-99.99,,,-99.99,,2013-01-23 12:12:00,
2013-01-23 05:22:00,31.0,1.0,-100.00,West,280,0.0,6.0,26,-99.99,,,-99.99,,2013-01-23 12:22:00,
2013-01-23 05:33:00,34.0,2.0,-100.00,North,0,1.0,4.0,25,-99.99,,,-99.99,,2013-01-23 12:33:00,
2013-01-23 05:43:00,34.0,1.0,-100.00,WNW,285,2.0,4.0,24,-99.99,,,-99.99,,2013-01-23 12:43:00,
2013-01-23 05:52:00,32.0,1.0,-100.00,NW,310,4.0,5.0,25,-99.99,,,-99.99,,2013-01-23 12:52:00,
2013-01-23 06:03:00,33.0,1.0,-100.00,WNW,295,2.0,3.0,25,-99.99,,,-99.99,,2013-01-23 13:03:00,
2013-01-23 06:12:00,32.0,1.0,-100.00,NNW,345,2.0,4.0,25,-99.99,,,-99.99,,2013-01-23 13:12:00,
2013-01-23 06:23:00,32.0,1.0,-100.00,WNW,295,2.0,3.0,25,-99.99,,,-99.99,,2013-01-23 13:23:00,
2013-01-23 06:33:00,29.0,0.0,-100.00,NW,320,4.0,6.0,28,-99.99,,,-99.99,,2013-01-23 13:33:00,
2013-01-23 06:42:00,33.0,2.0,-100.00,North,5,3.0,7.0,26,-99.99,,,-99.99,,2013-01-23 13:42:00,
2013-01-23 06:52:00,34.0,2.0,-100.00,ENE,60,0.0,3.0,25,-99.99,,,-99.99,,2013-01-23 13:52:00,
2013-01-23 07:02:00,31.0,1.0,-100.00,NNW,340,3.0,6.0,27,-99.99,,,-99.99,,2013-01-23 14:02:00,
2013-01-23 07:12:00,32.0,2.0,-100.00,North,350,2.0,6.0,26,-99.99,,,-99.99,,2013-01-23 14:12:00,
2013-01-23 07:23:00,31.0,1.0,-100.00,NW,305,4.0,6.0,27,-99.99,,,-99.99,,2013-01-23 14:23:00,
2013-01-23 07:33:00,31.0,2.0,-100.00,NE,55,2.0,7.0,28,-99.99,,,-99.99,,2013-01-23 14:33:00,
2013-01-23 07:42:00,31.0,2.0,-100.00,ESE,115,0.0,5.0,28,-99.99,,,-99.99,,2013-01-23 14:42:00,
2013-01-23 07:53:00,30.0,2.0,-100.00,South,190,1.0,2.0,28,-99.99,,,-99.99,,2013-01-23 14:53:00,
2013-01-23 08:03:00,31.0,2.0,-100.00,NW,310,1.0,4.0,28,-99.99,,,-99.99,,2013-01-23 15:03:00,
2013-01-23 08:12:00,31.0,2.0,-100.00,WSW,245,0.0,3.0,29,-99.99,,,-99.99,,2013-01-23 15:12:00,
2013-01-23 08:22:00,31.0,3.0,-100.00,ENE,65,1.0,4.0,29,-99.99,,,-99.99,,2013-01-23 15:22:00,
2013-01-23 08:33:00,31.0,3.0,-100.00,NW,305,6.0,7.0,29,-99.99,,,-99.99,,2013-01-23 15:33:00,
2013-01-23 08:43:00,31.0,3.0,-100.00,NNW,335,7.0,9.0,29,-99.99,,,-99.99,,2013-01-23 15:43:00,
2013-01-23 08:52:00,31.0,3.0,-100.00,WNW,295,6.0,8.0,29,-99.99,,,-99.99,,2013-01-23 15:52:00,
2013-01-23 09:03:00,30.0,3.0,-100.00,WNW,295,6.0,8.0,31,-99.99,,,-99.99,,2013-01-23 16:03:00,
2013-01-23 09:12:00,31.0,4.0,-100.00,NNW,330,4.0,7.0,31,-99.99,,,-99.99,,2013-01-23 16:12:00,
2013-01-23 09:23:00,32.0,5.0,-100.00,North,0,4.0,5.0,31,-99.99,,,-99.99,,2013-01-23 16:23:00,
2013-01-23 09:32:00,32.0,5.0,-100.00,NW,315,4.0,6.0,30,-99.99,,,-99.99,,2013-01-23 16:32:00,
2013-01-23 09:42:00,33.0,5.0,-100.00,North,0,3.0,4.0,30,-99.99,,,-99.99,,2013-01-23 16:42:00,
2013-01-23 09:52:00,34.0,6.0,-100.00,NE,40,1.0,4.0,30,-99.99,,,-99.99,,2013-01-23 16:52:00,
2013-01-23 10:03:00,33.0,6.0,-100.00,SSW,210,1.0,2.0,31,-99.99,,,-99.99,,2013-01-23 17:03:00,
2013-01-23 10:22:00,35.0,8.0,-100.00,SW,235,1.0,2.0,31,-99.99,,,-99.99,,2013-01-23 17:22:00,
2013-01-23 10:33:00,35.0,8.0,-100.00,SE,145,1.0,1.0,31,-99.99,,,-99.99,,2013-01-23 17:33:00,
2013-01-23 10:42:00,35.0,8.0,-100.00,East,90,1.0,2.0,31,-99.99,,,-99.99,,2013-01-23 17:42:00,
2013-01-23 10:52:00,35.0,9.0,-100.00,SSE,160,2.0,3.0,33,-99.99,,,-99.99,,2013-01-23 17:52:00,
2013-01-23 11:03:00,35.0,8.0,-100.00,ESE,120,1.0,3.0,32,-99.99,,,-99.99,,2013-01-23 18:03:00,
2013-01-23 11:12:00,35.0,8.0,-100.00,SE,125,3.0,4.0,31,-99.99,,,-99.99,,2013-01-23 18:12:00,
2013-01-23 11:23:00,35.0,7.0,-100.00,ESE,115,6.0,7.0,30,-99.99,,,-99.99,,2013-01-23 18:23:00,
2013-01-23 11:33:00,35.0,7.0,-100.00,SE,130,6.0,7.0,30,-99.99,,,-99.99,,2013-01-23 18:33:00,
2013-01-23 11:43:00,35.0,8.0,-100.00,East,100,4.0,6.0,31,-99.99,,,-99.99,,2013-01-23 18:43:00,
2013-01-23 11:52:00,36.0,9.0,-100.00,ESE,115,4.0,7.0,31,-99.99,,,-99.99,,2013-01-23 18:52:00,
2013-01-23 12:03:00,36.0,9.0,-100.00,SE,135,6.0,7.0,31,-99.99,,,-99.99,,2013-01-23 19:03:00,
2013-01-23 12:13:00,37.0,9.0,-100.00,SE,125,5.0,7.0,31,-99.99,,,-99.99,,2013-01-23 19:13:00,
2013-01-23 12:22:00,36.0,9.0,-100.00,SE,135,5.0,7.0,31,-99.99,,,-99.99,,2013-01-23 19:22:00,
2013-01-23 12:33:00,38.0,9.0,-100.00,SSE,160,4.0,7.0,29,-99.99,,,-99.99,,2013-01-23 19:33:00,
2013-01-23 12:43:00,38.0,9.0,-100.00,SSE,160,6.0,7.0,29,-99.99,,,-99.99,,2013-01-23 19:43:00,
2013-01-23 12:52:00,39.0,10.0,-100.00,South,185,6.0,7.0,29,-99.99,,,-99.99,,2013-01-23 19:52:00,
2013-01-23 13:03:00,38.0,9.0,-100.00,SSE,155,5.0,7.0,29,-99.99,,,-99.99,,2013-01-23 20:03:00,
2013-01-23 13:12:00,37.0,9.0,-100.00,SSE,155,6.0,7.0,29,-99.99,,,-99.99,,2013-01-23 20:12:00,
2013-01-23 13:23:00,36.0,9.0,-100.00,SSE,160,6.0,9.0,32,-99.99,,,-99.99,,2013-01-23 20:23:00,
2013-01-23 13:33:00,36.0,10.0,-100.00,South,170,7.0,8.0,33,-99.99,,,-99.99,,2013-01-23 20:33:00,
2013-01-23 13:42:00,36.0,11.0,-100.00,SSE,150,6.0,8.0,34,-99.99,,,-99.99,,2013-01-23 20:42:00,
2013-01-23 13:53:00,36.0,11.0,-100.00,SE,145,6.0,11.0,33,-99.99,,,-99.99,,2013-01-23 20:53:00,
2013-01-23 14:03:00,36.0,10.0,-100.00,SE,135,9.0,10.0,33,-99.99,,,-99.99,,2013-01-23 21:03:00,
2013-01-23 14:12:00,36.0,10.0,-100.00,SE,125,5.0,10.0,33,-99.99,,,-99.99,,2013-01-23 21:12:00,
2013-01-23 14:23:00,36.0,10.0,-100.00,SE,135,7.0,8.0,33,-99.99,,,-99.99,,2013-01-23 21:23:00,
2013-01-23 14:33:00,36.0,10.0,-100.00,SSE,150,6.0,9.0,33,-99.99,,,-99.99,,2013-01-23 21:33:00,
2013-01-23 14:42:00,36.0,11.0,-100.00,South,170,3.0,9.0,34,-99.99,,,-99.99,,2013-01-23 21:42:00,
2013-01-23 14:52:00,36.0,11.0,-100.00,South,170,5.0,7.0,35,-99.99,,,-99.99,,2013-01-23 21:52:00,
2013-01-23 15:02:00,36.0,11.0,-100.00,South,180,4.0,6.0,36,-99.99,,,-99.99,,2013-01-23 22:02:00,
2013-01-23 15:12:00,35.0,11.0,-100.00,ESE,110,4.0,9.0,36,-99.99,,,-99.99,,2013-01-23 22:12:00,
2013-01-23 15:23:00,35.0,11.0,-100.00,SSW,195,2.0,8.0,37,-99.99,,,-99.99,,2013-01-23 22:23:00,
2013-01-23 15:33:00,34.0,12.0,-100.00,SE,125,4.0,7.0,38,-99.99,,,-99.99,,2013-01-23 22:33:00,
2013-01-23 15:42:00,34.0,12.0,-100.00,SE,125,4.0,6.0,39,-99.99,,,-99.99,,2013-01-23 22:42:00,
2013-01-23 15:52:00,33.0,13.0,-100.00,SSE,150,4.0,6.0,42,-99.99,,,-99.99,,2013-01-23 22:52:00,
2013-01-23 16:03:00,33.0,13.0,-100.00,East,100,4.0,7.0,44,-99.99,,,-99.99,,2013-01-23 23:03:00,
2013-01-23 16:12:00,32.0,14.0,-100.00,ESE,115,4.0,6.0,45,-99.99,,,-99.99,,2013-01-23 23:12:00,
2013-01-23 16:22:00,32.0,14.0,-100.00,SE,125,4.0,8.0,45,-99.99,,,-99.99,,2013-01-23 23:22:00,
2013-01-23 16:33:00,32.0,14.0,-100.00,ESE,110,6.0,9.0,46,-99.99,,,-99.99,,2013-01-23 23:33:00,
2013-01-23 16:42:00,32.0,14.0,-100.00,SE,140,3.0,6.0,47,-99.99,,,-99.99,,2013-01-23 23:42:00,
2013-01-23 16:52:00,31.0,15.0,-100.00,South,185,1.0,4.0,49,-99.99,,,-99.99,,2013-01-23 23:52:00,
2013-01-23 17:03:00,31.0,15.0,-100.00,SW,220,2.0,4.0,50,-99.99,,,-99.99,,2013-01-24 00:03:00,
2013-01-23 17:12:00,31.0,15.0,-100.00,SSE,160,2.0,4.0,51,-99.99,,,-99.99,,2013-01-24 00:12:00,
2013-01-23 17:22:00,30.0,16.0,-100.00,SSE,165,4.0,6.0,54,-99.99,,,-99.99,,2013-01-24 00:22:00,
2013-01-23 17:32:00,30.0,16.0,-100.00,SSE,155,4.0,7.0,55,-99.99,,,-99.99,,2013-01-24 00:32:00,
2013-01-23 17:42:00,31.0,17.0,-100.00,SSE,165,4.0,9.0,54,-99.99,,,-99.99,,2013-01-24 00:42:00,
2013-01-23 17:52:00,31.0,17.0,-100.00,SE,145,4.0,9.0,55,-99.99,,,-99.99,,2013-01-24 00:52:00,
2013-01-23 18:03:00,31.0,17.0,-100.00,SSE,155,6.0,7.0,55,-99.99,,,-99.99,,2013-01-24 01:03:00,
2013-01-23 18:12:00,30.0,17.0,-100.00,ESE,105,4.0,7.0,55,-99.99,,,-99.99,,2013-01-24 01:12:00,
2013-01-23 18:23:00,30.0,17.0,-100.00,SE,140,7.0,7.0,57,-99.99,,,-99.99,,2013-01-24 01:23:00,
2013-01-23 18:33:00,30.0,17.0,-100.00,SE,130,5.0,7.0,56,-99.99,,,-99.99,,2013-01-24 01:33:00,
2013-01-23 18:42:00,30.0,17.0,-100.00,SE,125,3.0,7.0,57,-99.99,,,-99.99,,2013-01-24 01:42:00,
2013-01-23 18:52:00,30.0,17.0,-100.00,SE,140,1.0,6.0,57,-99.99,,,-99.99,,2013-01-24 01:52:00,
2013-01-23 19:02:00,30.0,17.0,-100.00,ESE,120,2.0,3.0,57,-99.99,,,-99.99,,2013-01-24 02:02:00,
2013-01-23 19:12:00,30.0,17.0,-100.00,SSE,165,2.0,3.0,56,-99.99,,,-99.99,,2013-01-24 02:12:00,
2013-01-23 19:22:00,29.0,17.0,-100.00,ESE,115,2.0,3.0,58,-99.99,,,-99.99,,2013-01-24 02:22:00,
2013-01-23 19:33:00,29.0,17.0,-100.00,North,0,0.0,2.0,59,-99.99,,,-99.99,,2013-01-24 02:33:00,
2013-01-23 19:42:00,29.0,17.0,-100.00,North,0,0.0,2.0,59,-99.99,,,-99.99,,2013-01-24 02:42:00,
2013-01-23 19:52:00,29.0,17.0,-100.00,North,0,0.0,2.0,59,-99.99,,,-99.99,,2013-01-24 02:52:00,
2013-01-23 20:02:00,28.0,16.0,-100.00,WNW,295,1.0,3.0,60,-99.99,,,-99.99,,2013-01-24 03:02:00,
2013-01-23 20:12:00,28.0,16.0,-100.00,SW,225,2.0,3.0,60,-99.99,,,-99.99,,2013-01-24 03:12:00,
2013-01-23 20:22:00,29.0,16.0,-100.00,NE,45,2.0,3.0,59,-99.99,,,-99.99,,2013-01-24 03:22:00,
2013-01-23 20:33:00,29.0,16.0,-100.00,East,95,3.0,6.0,58,-99.99,,,-99.99,,2013-01-24 03:33:00,
2013-01-23 20:43:00,30.0,16.0,-100.00,NW,315,0.0,2.0,56,-99.99,,,-99.99,,2013-01-24 03:43:00,
2013-01-23 20:52:00,28.0,15.0,-100.00,NNW,330,1.0,2.0,58,-99.99,,,-99.99,,2013-01-24 03:52:00,
2013-01-23 21:02:00,27.0,15.0,-100.00,NE,35,1.0,2.0,60,-99.99,,,-99.99,,2013-01-24 04:02:00,
2013-01-23 21:12:00,27.0,15.0,-100.00,East,95,0.0,2.0,61,-99.99,,,-99.99,,2013-01-24 04:12:00,
2013-01-23 21:22:00,26.0,15.0,-100.00,WNW,300,1.0,6.0,61,-99.99,,,-99.99,,2013-01-24 04:22:00,
2013-01-23 21:32:00,27.0,15.0,-100.00,ESE,115,0.0,3.0,61,-99.99,,,-99.99,,2013-01-24 04:32:00,
2013-01-23 21:42:00,27.0,15.0,-100.00,ENE,60,4.0,5.0,60,-99.99,,,-99.99,,2013-01-24 04:42:00,
2013-01-23 21:52:00,29.0,16.0,-100.00,West,280,4.0,6.0,56,-99.99,,,-99.99,,2013-01-24 04:52:00,
2013-01-23 22:03:00,25.0,14.0,-100.00,NNE,30,2.0,7.0,62,-99.99,,,-99.99,,2013-01-24 05:03:00,
2013-01-23 22:12:00,26.0,15.0,-100.00,WNW,295,4.0,7.0,62,-99.99,,,-99.99,,2013-01-24 05:12:00,
2013-01-23 22:22:00,27.0,16.0,-100.00,NW,310,0.0,4.0,62,-99.99,,,-99.99,,2013-01-24 05:22:00,
2013-01-23 22:33:00,27.0,16.0,-100.00,NW,310,0.0,4.0,62,-99.99,,,-99.99,,2013-01-24 05:33:00,
2013-01-23 22:42:00,27.0,16.0,-100.00,NW,310,0.0,4.0,62,-99.99,,,-99.99,,2013-01-24 05:42:00,
2013-01-23 22:52:00,25.0,15.0,-100.00,ENE,75,2.0,7.0,63,-99.99,,,-99.99,,2013-01-24 05:52:00,
2013-01-23 23:02:00,27.0,16.0,-100.00,East,85,2.0,4.0,62,-99.99,,,-99.99,,2013-01-24 06:02:00,
2013-01-23 23:12:00,28.0,16.0,-100.00,ENE,75,2.0,6.0,61,-99.99,,,-99.99,,2013-01-24 06:12:00,
2013-01-23 23:22:00,26.0,15.0,-100.00,WSW,245,1.0,3.0,62,-99.99,,,-99.99,,2013-01-24 06:22:00,
2013-01-23 23:32:00,27.0,15.0,-100.00,NNW,335,3.0,4.0,62,-99.99,,,-99.99,,2013-01-24 06:32:00,
2013-01-23 23:42:00,28.0,17.0,-100.00,East,85,4.0,6.0,62,-99.99,,,-99.99,,2013-01-24 06:42:00,
2013-01-23 23:52:00,30.0,16.0,-100.00,East,85,3.0,7.0,55,-99.99,,,-99.99,,2013-01-24 06:52:00,